Island Lookout — WDF6311 — position and weather

sailwx.info

Track history (hours):
 
Tides and Currents Weather Stations Pressure Air Temp Water Temp Dewpoint Dewpoint Depression Visibility Wind Speed Wind Dir Waves Ship Positions

Island Lookout

Owner: Stevens Towing Company Inc., Yonges Island, SC. More information available from US FCC via Universal Licensing System and Coast Guard Vessel Documentation Center.

Last reported at 2015-Apr-15 13:08 UTC. Time now 2015-Apr-18 16:40 UTC.
Position N 38°06' W 076°16'.

Length 22 m; draft 2.9 m.

Type: Towing. MMSI: 367472930.

Date/timePositionNaut miles runAvg speedWind from/ knotsBaromVisibWave heightAir tempDewpointWater temp
2015-Apr-15 13:08N 38°06' W 076°16'44 6.7
2015-Apr-15 06:33N 38°50' W 076°26'6 6.6
2015-Apr-15 05:34N 38°56' W 076°24'7 6.5
2015-Apr-15 04:32N 39°03' W 076°22'6 6.4
2015-Apr-15 03:34N 39°09' W 076°19'8 7.7
2015-Apr-15 02:33N 39°15' W 076°14'8 7.6
2015-Apr-15 01:33N 39°22' W 076°09'8 7.6
2015-Apr-15 00:33N 39°26' W 076°01'7 6.6
2015-Apr-14 23:34N 39°30' W 075°54'5 5.4
2015-Apr-14 22:33N 39°32' W 075°48'5 5.0
2015-Apr-14 21:34N 39°33' W 075°41'5 4.6
2015-Apr-14 20:34N 39°33' W 075°35'5 4.8
2015-Apr-14 19:34N 39°38' W 075°34'8 8.3
2015-Apr-14 18:33N 39°45' W 075°29'8 8.4
2015-Apr-14 17:33N 39°51' W 075°21'7 7.3
2015-Apr-14 16:34N 39°53' W 075°12'0 0.4
2015-Apr-14 15:34N 39°54' W 075°12'0 0.0
2015-Apr-14 14:34N 39°54' W 075°12'0 0.0
2015-Apr-14 13:33N 39°54' W 075°12'0 0.0
2015-Apr-14 12:34N 39°54' W 075°12'0 0.0
2015-Apr-14 11:34N 39°54' W 075°12'0 0.0
2015-Apr-14 10:34N 39°54' W 075°12'0 0.0
2015-Apr-14 09:34N 39°54' W 075°12'0 0.0
2015-Apr-14 08:34N 39°54' W 075°12'0 0.0
2015-Apr-14 07:34N 39°54' W 075°12'0 0.0
2015-Apr-14 06:34N 39°54' W 075°12'0 0.0
2015-Apr-14 05:34N 39°54' W 075°12'0 0.0
2015-Apr-14 04:34N 39°54' W 075°12'0 0.0
2015-Apr-14 03:33N 39°54' W 075°12'0 0.0
2015-Apr-14 02:33N 39°54' W 075°12'0 0.0
2015-Apr-14 01:33N 39°54' W 075°12'0 0.0
2015-Apr-14 00:34N 39°54' W 075°12'0 0.0
2015-Apr-13 23:34N 39°54' W 075°12'3 3.3
2015-Apr-13 22:34N 39°51' W 075°15'0 0.2
2015-Apr-13 21:34N 39°51' W 075°15'2 2.0
2015-Apr-13 20:33N 39°52' W 075°13'2 1.7
2015-Apr-13 19:33N 39°54' W 075°12'4 3.5
2015-Apr-13 18:33N 39°55' W 075°08'0 0.5
2015-Apr-13 17:34N 39°56' W 075°08'0 0.0
2015-Apr-13 16:34N 39°56' W 075°08'73 3.4
2015-Apr-12 19:05N 39°08' W 076°20'11 7.2
2015-Apr-12 17:31N 38°58' W 076°24'7 7.1
2015-Apr-12 16:33N 38°51' W 076°26'43 6.8
2015-Apr-12 10:12N 38°09' W 076°16'  
2015-Apr-06 11:28N 39°07' W 076°20'7 7.4
2015-Apr-06 10:30N 39°00' W 076°22'8 7.6
2015-Apr-06 09:27N 38°53' W 076°25'47 6.8
2015-Apr-06 02:33N 38°07' W 076°16'9 6.8
2015-Apr-06 01:17N 37°58' W 076°13'  
Track history (hours):
 
Tides and Currents Weather Stations Pressure Air Temp Water Temp Dewpoint Dewpoint Depression Visibility Wind Speed Wind Dir Waves Ship Positions

Island Lookout

Owner: Stevens Towing Company Inc., Yonges Island, SC. More information available from US FCC via Universal Licensing System and Coast Guard Vessel Documentation Center.

Last reported at 2015-Apr-15 13:08 UTC. Time now 2015-Apr-18 16:40 UTC.
Position N 38°06' W 076°16'.

Length 22 m; draft 2.9 m.

Type: Towing. MMSI: 367472930.

Date/timePositionNaut miles runAvg speedWind from/ knotsBaromVisibWave heightAir tempDewpointWater temp
2015-Apr-15 13:08N 38°06' W 076°16'44 6.7
2015-Apr-15 06:33N 38°50' W 076°26'6 6.6
2015-Apr-15 05:34N 38°56' W 076°24'7 6.5
2015-Apr-15 04:32N 39°03' W 076°22'6 6.4
2015-Apr-15 03:34N 39°09' W 076°19'8 7.7
2015-Apr-15 02:33N 39°15' W 076°14'8 7.6
2015-Apr-15 01:33N 39°22' W 076°09'8 7.6
2015-Apr-15 00:33N 39°26' W 076°01'7 6.6
2015-Apr-14 23:34N 39°30' W 075°54'5 5.4
2015-Apr-14 22:33N 39°32' W 075°48'5 5.0
2015-Apr-14 21:34N 39°33' W 075°41'5 4.6
2015-Apr-14 20:34N 39°33' W 075°35'5 4.8
2015-Apr-14 19:34N 39°38' W 075°34'8 8.3
2015-Apr-14 18:33N 39°45' W 075°29'8 8.4
2015-Apr-14 17:33N 39°51' W 075°21'7 7.3
2015-Apr-14 16:34N 39°53' W 075°12'0 0.4
2015-Apr-14 15:34N 39°54' W 075°12'0 0.0
2015-Apr-14 14:34N 39°54' W 075°12'0 0.0
2015-Apr-14 13:33N 39°54' W 075°12'0 0.0
2015-Apr-14 12:34N 39°54' W 075°12'0 0.0
2015-Apr-14 11:34N 39°54' W 075°12'0 0.0
2015-Apr-14 10:34N 39°54' W 075°12'0 0.0
2015-Apr-14 09:34N 39°54' W 075°12'0 0.0
2015-Apr-14 08:34N 39°54' W 075°12'0 0.0
2015-Apr-14 07:34N 39°54' W 075°12'0 0.0
2015-Apr-14 06:34N 39°54' W 075°12'0 0.0
2015-Apr-14 05:34N 39°54' W 075°12'0 0.0
2015-Apr-14 04:34N 39°54' W 075°12'0 0.0
2015-Apr-14 03:33N 39°54' W 075°12'0 0.0
2015-Apr-14 02:33N 39°54' W 075°12'0 0.0
2015-Apr-14 01:33N 39°54' W 075°12'0 0.0
2015-Apr-14 00:34N 39°54' W 075°12'0 0.0
2015-Apr-13 23:34N 39°54' W 075°12'3 3.3
2015-Apr-13 22:34N 39°51' W 075°15'0 0.2
2015-Apr-13 21:34N 39°51' W 075°15'2 2.0
2015-Apr-13 20:33N 39°52' W 075°13'2 1.7
2015-Apr-13 19:33N 39°54' W 075°12'4 3.5
2015-Apr-13 18:33N 39°55' W 075°08'0 0.5
2015-Apr-13 17:34N 39°56' W 075°08'0 0.0
2015-Apr-13 16:34N 39°56' W 075°08'73 3.4
2015-Apr-12 19:05N 39°08' W 076°20'11 7.2
2015-Apr-12 17:31N 38°58' W 076°24'7 7.1
2015-Apr-12 16:33N 38°51' W 076°26'43 6.8
2015-Apr-12 10:12N 38°09' W 076°16'  
2015-Apr-06 11:28N 39°07' W 076°20'7 7.4
2015-Apr-06 10:30N 39°00' W 076°22'8 7.6
2015-Apr-06 09:27N 38°53' W 076°25'47 6.8
2015-Apr-06 02:33N 38°07' W 076°16'9 6.8
2015-Apr-06 01:17N 37°58' W 076°13'  

Dump ship's entire track history